sensor_id;sensor_type;location;lat;lon;timestamp;pressure;altitude;pressure_sealevel;temperature;humidity
53754;BME280;39667;52.274;20.964;2022-08-21T00:00:21;100013.95;;;23.83;56.03
53754;BME280;39667;52.274;20.964;2022-08-21T00:02:58;100010.84;;;23.73;56.31
53754;BME280;39667;52.274;20.964;2022-08-21T00:05:26;100013.70;;;23.68;56.16
53754;BME280;39667;52.274;20.964;2022-08-21T00:07:54;100012.86;;;23.62;56.73
53754;BME280;39667;52.274;20.964;2022-08-21T00:10:22;100010.50;;;23.57;56.62
53754;BME280;39667;52.274;20.964;2022-08-21T00:12:49;100015.29;;;23.55;56.71
53754;BME280;39667;52.274;20.964;2022-08-21T00:15:22;100021.08;;;23.55;56.92
53754;BME280;39667;52.274;20.964;2022-08-21T00:17:49;100018.26;;;23.48;56.92
53754;BME280;39667;52.274;20.964;2022-08-21T00:20:16;100023.79;;;23.44;57.18
53754;BME280;39667;52.274;20.964;2022-08-21T00:22:45;100021.20;;;23.42;57.15
53754;BME280;39667;52.274;20.964;2022-08-21T00:25:13;100024.48;;;23.42;57.35
53754;BME280;39667;52.274;20.964;2022-08-21T00:27:41;100022.55;;;23.38;57.49
53754;BME280;39667;52.274;20.964;2022-08-21T00:30:10;100014.63;;;23.36;57.73
53754;BME280;39667;52.274;20.964;2022-08-21T00:32:48;100016.13;;;23.30;57.56
53754;BME280;39667;52.274;20.964;2022-08-21T00:35:18;100009.79;;;23.28;58.01
53754;BME280;39667;52.274;20.964;2022-08-21T00:37:45;100007.41;;;23.25;57.93
53754;BME280;39667;52.274;20.964;2022-08-21T00:40:15;100003.95;;;23.21;57.82
53754;BME280;39667;52.274;20.964;2022-08-21T00:42:42;100000.98;;;23.20;58.17
53754;BME280;39667;52.274;20.964;2022-08-21T00:45:20;99992.33;;;23.15;58.33
53754;BME280;39667;52.274;20.964;2022-08-21T00:47:49;99997.48;;;23.10;58.24
53754;BME280;39667;52.274;20.964;2022-08-21T00:50:17;99997.23;;;23.09;58.65
53754;BME280;39667;52.274;20.964;2022-08-21T00:52:50;99995.40;;;23.06;58.61
53754;BME280;39667;52.274;20.964;2022-08-21T00:55:19;99995.94;;;23.06;58.69
53754;BME280;39667;52.274;20.964;2022-08-21T00:57:52;99993.46;;;23.06;58.98
53754;BME280;39667;52.274;20.964;2022-08-21T01:00:24;99987.90;;;23.06;58.78
53754;BME280;39667;52.274;20.964;2022-08-21T01:02:58;99987.61;;;23.02;58.81
53754;BME280;39667;52.274;20.964;2022-08-21T01:05:25;99990.39;;;22.98;58.97
53754;BME280;39667;52.274;20.964;2022-08-21T01:07:54;99989.54;;;22.95;59.21
53754;BME280;39667;52.274;20.964;2022-08-21T01:10:24;99985.83;;;22.91;59.30
53754;BME280;39667;52.274;20.964;2022-08-21T01:12:52;99983.83;;;22.89;59.44
53754;BME280;39667;52.274;20.964;2022-08-21T01:15:24;99977.97;;;22.85;59.47
53754;BME280;39667;52.274;20.964;2022-08-21T01:17:53;99975.59;;;22.80;59.54
53754;BME280;39667;52.274;20.964;2022-08-21T01:20:20;99976.01;;;22.77;59.73
53754;BME280;39667;52.274;20.964;2022-08-21T01:22:47;99973.14;;;22.74;59.72
53754;BME280;39667;52.274;20.964;2022-08-21T01:25:15;99971.92;;;22.71;59.93
53754;BME280;39667;52.274;20.964;2022-08-21T01:27:43;99971.54;;;22.68;60.02
53754;BME280;39667;52.274;20.964;2022-08-21T01:30:14;99971.61;;;22.64;59.95
53754;BME280;39667;52.274;20.964;2022-08-21T01:32:42;99972.91;;;22.61;60.25
53754;BME280;39667;52.274;20.964;2022-08-21T01:35:10;99972.55;;;22.58;60.10
53754;BME280;39667;52.274;20.964;2022-08-21T01:37:39;99969.27;;;22.56;60.06
53754;BME280;39667;52.274;20.964;2022-08-21T01:40:07;99965.63;;;22.54;60.23
53754;BME280;39667;52.274;20.964;2022-08-21T01:42:35;99963.16;;;22.54;60.40
53754;BME280;39667;52.274;20.964;2022-08-21T01:45:03;99961.45;;;22.55;60.49
53754;BME280;39667;52.274;20.964;2022-08-21T01:47:30;99962.09;;;22.56;60.44
53754;BME280;39667;52.274;20.964;2022-08-21T01:49:57;99961.59;;;22.58;60.51
53754;BME280;39667;52.274;20.964;2022-08-21T01:52:24;99955.42;;;22.60;60.48
53754;BME280;39667;52.274;20.964;2022-08-21T01:54:51;99950.05;;;22.59;60.24
53754;BME280;39667;52.274;20.964;2022-08-21T01:57:21;99951.90;;;22.61;60.42
53754;BME280;39667;52.274;20.964;2022-08-21T01:59:52;99956.45;;;22.63;60.64
53754;BME280;39667;52.274;20.964;2022-08-21T02:02:19;99949.27;;;22.60;60.63
53754;BME280;39667;52.274;20.964;2022-08-21T02:04:46;99948.16;;;22.58;60.62
53754;BME280;39667;52.274;20.964;2022-08-21T02:07:14;99946.68;;;22.53;60.84
53754;BME280;39667;52.274;20.964;2022-08-21T02:09:41;99946.38;;;22.49;60.72
53754;BME280;39667;52.274;20.964;2022-08-21T02:12:10;99948.70;;;22.47;60.87
53754;BME280;39667;52.274;20.964;2022-08-21T02:14:37;99948.31;;;22.45;60.97
53754;BME280;39667;52.274;20.964;2022-08-21T02:17:05;99948.97;;;22.43;61.00
53754;BME280;39667;52.274;20.964;2022-08-21T02:19:36;99944.16;;;22.42;61.03
53754;BME280;39667;52.274;20.964;2022-08-21T02:22:09;99941.38;;;22.41;61.28
53754;BME280;39667;52.274;20.964;2022-08-21T02:24:37;99936.09;;;22.37;61.28
53754;BME280;39667;52.274;20.964;2022-08-21T02:27:24;99933.43;;;22.33;61.11
53754;BME280;39667;52.274;20.964;2022-08-21T02:29:55;99930.25;;;22.30;61.31
53754;BME280;39667;52.274;20.964;2022-08-21T02:32:23;99929.63;;;22.26;61.69
53754;BME280;39667;52.274;20.964;2022-08-21T02:34:49;99925.17;;;22.22;61.74
53754;BME280;39667;52.274;20.964;2022-08-21T02:37:16;99925.70;;;22.20;61.76
53754;BME280;39667;52.274;20.964;2022-08-21T02:39:43;99926.13;;;22.19;61.84
53754;BME280;39667;52.274;20.964;2022-08-21T02:42:10;99927.88;;;22.17;61.92
53754;BME280;39667;52.274;20.964;2022-08-21T02:44:37;99928.91;;;22.14;62.03
53754;BME280;39667;52.274;20.964;2022-08-21T02:47:03;99927.98;;;22.12;62.11
53754;BME280;39667;52.274;20.964;2022-08-21T02:49:30;99925.25;;;22.08;62.13
53754;BME280;39667;52.274;20.964;2022-08-21T02:51:57;99920.30;;;22.04;62.16
53754;BME280;39667;52.274;20.964;2022-08-21T02:54:24;99915.27;;;22.04;62.35
53754;BME280;39667;52.274;20.964;2022-08-21T02:56:51;99918.02;;;22.03;62.22
53754;BME280;39667;52.274;20.964;2022-08-21T02:59:18;99912.04;;;22.01;62.21
53754;BME280;39667;52.274;20.964;2022-08-21T03:01:44;99906.23;;;21.99;62.32
53754;BME280;39667;52.274;20.964;2022-08-21T03:04:11;99899.09;;;21.93;62.33
53754;BME280;39667;52.274;20.964;2022-08-21T03:06:38;99895.52;;;21.87;62.46
53754;BME280;39667;52.274;20.964;2022-08-21T03:09:05;99899.66;;;21.90;62.73
53754;BME280;39667;52.274;20.964;2022-08-21T03:11:32;99899.83;;;21.90;62.61
53754;BME280;39667;52.274;20.964;2022-08-21T03:13:58;99904.70;;;21.92;62.63
53754;BME280;39667;52.274;20.964;2022-08-21T03:16:25;99903.14;;;21.91;62.77
53754;BME280;39667;52.274;20.964;2022-08-21T03:18:52;99902.20;;;21.89;62.74
53754;BME280;39667;52.274;20.964;2022-08-21T03:21:19;99901.16;;;21.86;62.84
53754;BME280;39667;52.274;20.964;2022-08-21T03:23:46;99900.84;;;21.82;62.87
53754;BME280;39667;52.274;20.964;2022-08-21T03:26:13;99897.77;;;21.80;63.02
53754;BME280;39667;52.274;20.964;2022-08-21T03:28:41;99904.70;;;21.78;62.83
53754;BME280;39667;52.274;20.964;2022-08-21T03:31:08;99905.73;;;21.75;63.02
53754;BME280;39667;52.274;20.964;2022-08-21T03:33:35;99909.67;;;21.72;63.14
53754;BME280;39667;52.274;20.964;2022-08-21T03:36:05;99910.07;;;21.72;63.21
53754;BME280;39667;52.274;20.964;2022-08-21T03:38:34;99908.52;;;21.71;63.22
53754;BME280;39667;52.274;20.964;2022-08-21T03:41:03;99902.66;;;21.70;63.31
53754;BME280;39667;52.274;20.964;2022-08-21T03:43:32;99902.55;;;21.72;63.11
53754;BME280;39667;52.274;20.964;2022-08-21T03:46:01;99902.88;;;21.70;63.41
53754;BME280;39667;52.274;20.964;2022-08-21T03:48:29;99905.30;;;21.68;63.43
53754;BME280;39667;52.274;20.964;2022-08-21T03:50:56;99902.55;;;21.69;63.53
53754;BME280;39667;52.274;20.964;2022-08-21T03:53:23;99906.27;;;21.70;63.40
53754;BME280;39667;52.274;20.964;2022-08-21T03:55:51;99905.70;;;21.67;63.58
53754;BME280;39667;52.274;20.964;2022-08-21T03:58:22;99913.01;;;21.65;63.45
53754;BME280;39667;52.274;20.964;2022-08-21T04:00:51;99916.38;;;21.63;63.54
53754;BME280;39667;52.274;20.964;2022-08-21T04:03:19;99916.73;;;21.63;63.70
53754;BME280;39667;52.274;20.964;2022-08-21T04:05:46;99914.84;;;21.62;63.76
53754;BME280;39667;52.274;20.964;2022-08-21T04:08:14;99911.63;;;21.59;63.76
53754;BME280;39667;52.274;20.964;2022-08-21T04:10:45;99917.13;;;21.65;63.72
53754;BME280;39667;52.274;20.964;2022-08-21T04:13:13;99920.38;;;21.68;63.66
53754;BME280;39667;52.274;20.964;2022-08-21T04:15:41;99920.48;;;21.69;63.69
53754;BME280;39667;52.274;20.964;2022-08-21T04:18:08;99919.50;;;21.70;63.64
53754;BME280;39667;52.274;20.964;2022-08-21T04:20:35;99915.27;;;21.69;63.88
53754;BME280;39667;52.274;20.964;2022-08-21T04:23:02;99920.82;;;21.72;63.75
53754;BME280;39667;52.274;20.964;2022-08-21T04:25:29;99917.34;;;21.73;63.83
53754;BME280;39667;52.274;20.964;2022-08-21T04:27:56;99915.30;;;21.71;63.68
53754;BME280;39667;52.274;20.964;2022-08-21T04:30:25;99919.59;;;21.71;63.69
53754;BME280;39667;52.274;20.964;2022-08-21T04:32:56;99920.29;;;21.69;63.67
53754;BME280;39667;52.274;20.964;2022-08-21T04:35:25;99912.09;;;21.65;63.95
53754;BME280;39667;52.274;20.964;2022-08-21T04:37:53;99913.38;;;21.62;63.85
53754;BME280;39667;52.274;20.964;2022-08-21T04:40:21;99908.70;;;21.62;64.19
53754;BME280;39667;52.274;20.964;2022-08-21T04:42:51;99908.33;;;21.65;64.26
53754;BME280;39667;52.274;20.964;2022-08-21T04:47:55;99902.95;;;21.68;64.07
53754;BME280;39667;52.274;20.964;2022-08-21T04:50:28;99898.42;;;21.72;64.18
53754;BME280;39667;52.274;20.964;2022-08-21T04:53:05;99897.66;;;21.76;64.12
53754;BME280;39667;52.274;20.964;2022-08-21T04:55:33;99898.86;;;21.80;64.03
53754;BME280;39667;52.274;20.964;2022-08-21T04:58:00;99899.50;;;21.84;63.93
53754;BME280;39667;52.274;20.964;2022-08-21T05:00:28;99897.58;;;21.86;63.69
53754;BME280;39667;52.274;20.964;2022-08-21T05:02:56;99900.55;;;21.87;63.68
53754;BME280;39667;52.274;20.964;2022-08-21T05:05:28;99899.94;;;21.91;63.65
53754;BME280;39667;52.274;20.964;2022-08-21T05:07:57;99905.05;;;21.95;63.68
53754;BME280;39667;52.274;20.964;2022-08-21T05:10:26;99907.35;;;22.01;63.59
53754;BME280;39667;52.274;20.964;2022-08-21T05:12:54;99904.30;;;22.07;63.47
53754;BME280;39667;52.274;20.964;2022-08-21T05:15:21;99907.42;;;22.14;63.19
53754;BME280;39667;52.274;20.964;2022-08-21T05:17:48;99907.84;;;22.16;63.20
53754;BME280;39667;52.274;20.964;2022-08-21T05:20:27;99913.46;;;22.20;63.19
53754;BME280;39667;52.274;20.964;2022-08-21T05:22:55;99914.71;;;22.26;63.01
53754;BME280;39667;52.274;20.964;2022-08-21T05:25:22;99915.61;;;22.32;63.03
53754;BME280;39667;52.274;20.964;2022-08-21T05:27:50;99912.89;;;22.35;62.98
53754;BME280;39667;52.274;20.964;2022-08-21T05:30:19;99911.39;;;22.39;63.09
53754;BME280;39667;52.274;20.964;2022-08-21T05:32:47;99910.38;;;22.43;62.82
53754;BME280;39667;52.274;20.964;2022-08-21T05:35:14;99908.83;;;22.48;62.84
53754;BME280;39667;52.274;20.964;2022-08-21T05:37:41;99903.06;;;22.54;62.82
53754;BME280;39667;52.274;20.964;2022-08-21T05:40:09;99899.23;;;22.57;62.76
53754;BME280;39667;52.274;20.964;2022-08-21T05:42:53;99899.55;;;22.64;62.85
53754;BME280;39667;52.274;20.964;2022-08-21T05:45:28;99897.15;;;22.72;62.69
53754;BME280;39667;52.274;20.964;2022-08-21T05:48:18;99895.41;;;22.80;62.47
53754;BME280;39667;52.274;20.964;2022-08-21T05:50:47;99898.82;;;22.85;62.16
53754;BME280;39667;52.274;20.964;2022-08-21T05:53:16;99893.96;;;22.88;62.03
53754;BME280;39667;52.274;20.964;2022-08-21T05:55:44;99903.94;;;22.92;62.04
53754;BME280;39667;52.274;20.964;2022-08-21T05:58:19;99911.40;;;22.98;62.02
53754;BME280;39667;52.274;20.964;2022-08-21T06:00:48;99917.44;;;23.01;61.71
53754;BME280;39667;52.274;20.964;2022-08-21T06:03:19;99919.27;;;23.01;61.76
53754;BME280;39667;52.274;20.964;2022-08-21T06:05:46;99915.39;;;23.03;61.77
53754;BME280;39667;52.274;20.964;2022-08-21T06:08:15;99920.48;;;23.07;61.85
53754;BME280;39667;52.274;20.964;2022-08-21T06:10:43;99919.59;;;23.12;61.71
53754;BME280;39667;52.274;20.964;2022-08-21T06:13:11;99921.05;;;23.12;61.25
53754;BME280;39667;52.274;20.964;2022-08-21T06:15:38;99920.73;;;23.11;61.62
53754;BME280;39667;52.274;20.964;2022-08-21T06:18:06;99923.36;;;23.12;61.55
53754;BME280;39667;52.274;20.964;2022-08-21T06:20:33;99921.59;;;23.12;61.41
53754;BME280;39667;52.274;20.964;2022-08-21T06:23:01;99921.80;;;23.14;61.37
53754;BME280;39667;52.274;20.964;2022-08-21T06:25:28;99925.30;;;23.18;61.45
53754;BME280;39667;52.274;20.964;2022-08-21T06:28:07;99924.16;;;23.21;61.37
53754;BME280;39667;52.274;20.964;2022-08-21T06:30:35;99918.49;;;23.23;61.10
53754;BME280;39667;52.274;20.964;2022-08-21T06:33:03;99926.05;;;23.25;61.25
53754;BME280;39667;52.274;20.964;2022-08-21T06:35:30;99925.40;;;23.27;61.29
53754;BME280;39667;52.274;20.964;2022-08-21T06:37:57;99921.73;;;23.26;61.22
53754;BME280;39667;52.274;20.964;2022-08-21T06:40:26;99928.59;;;23.31;61.34
53754;BME280;39667;52.274;20.964;2022-08-21T06:42:57;99924.34;;;23.32;61.27
53754;BME280;39667;52.274;20.964;2022-08-21T06:45:27;99923.95;;;23.35;61.25
53754;BME280;39667;52.274;20.964;2022-08-21T06:47:58;99928.31;;;23.40;61.36
53754;BME280;39667;52.274;20.964;2022-08-21T06:50:25;99928.36;;;23.42;61.24
53754;BME280;39667;52.274;20.964;2022-08-21T06:53:08;99929.22;;;23.42;61.09
53754;BME280;39667;52.274;20.964;2022-08-21T06:55:36;99932.39;;;23.43;61.08
53754;BME280;39667;52.274;20.964;2022-08-21T06:58:04;99931.27;;;23.46;61.12
53754;BME280;39667;52.274;20.964;2022-08-21T07:00:32;99926.30;;;23.51;61.29
53754;BME280;39667;52.274;20.964;2022-08-21T07:02:59;99926.20;;;23.57;61.25
53754;BME280;39667;52.274;20.964;2022-08-21T07:05:27;99928.14;;;23.60;60.81
53754;BME280;39667;52.274;20.964;2022-08-21T07:07:55;99933.23;;;23.65;60.87
53754;BME280;39667;52.274;20.964;2022-08-21T07:10:25;99934.81;;;23.70;60.58
53754;BME280;39667;52.274;20.964;2022-08-21T07:12:53;99936.85;;;23.74;60.40
53754;BME280;39667;52.274;20.964;2022-08-21T07:15:30;99933.67;;;23.79;60.52
53754;BME280;39667;52.274;20.964;2022-08-21T07:17:59;99929.19;;;23.86;60.72
53754;BME280;39667;52.274;20.964;2022-08-21T07:20:28;99928.25;;;23.92;60.27
53754;BME280;39667;52.274;20.964;2022-08-21T07:22:57;99923.42;;;23.96;60.12
53754;BME280;39667;52.274;20.964;2022-08-21T07:25:26;99921.34;;;24.00;60.32
53754;BME280;39667;52.274;20.964;2022-08-21T07:27:53;99919.91;;;24.00;59.99
53754;BME280;39667;52.274;20.964;2022-08-21T07:30:20;99918.73;;;24.06;60.19
53754;BME280;39667;52.274;20.964;2022-08-21T07:32:47;99918.06;;;24.14;59.92
53754;BME280;39667;52.274;20.964;2022-08-21T07:35:17;99911.93;;;24.18;59.65
53754;BME280;39667;52.274;20.964;2022-08-21T07:37:44;99914.49;;;24.26;59.52
53754;BME280;39667;52.274;20.964;2022-08-21T07:40:12;99916.52;;;24.32;59.43
53754;BME280;39667;52.274;20.964;2022-08-21T07:42:46;99913.65;;;24.37;59.19
53754;BME280;39667;52.274;20.964;2022-08-21T07:45:14;99908.08;;;24.42;59.16
53754;BME280;39667;52.274;20.964;2022-08-21T07:47:40;99906.89;;;24.51;59.37
53754;BME280;39667;52.274;20.964;2022-08-21T07:50:10;99905.21;;;24.58;59.22
53754;BME280;39667;52.274;20.964;2022-08-21T07:52:39;99903.19;;;24.66;59.22
53754;BME280;39667;52.274;20.964;2022-08-21T07:55:11;99900.88;;;24.73;59.15
53754;BME280;39667;52.274;20.964;2022-08-21T07:57:38;99898.52;;;24.81;58.80
53754;BME280;39667;52.274;20.964;2022-08-21T08:00:13;99898.87;;;24.88;58.63
53754;BME280;39667;52.274;20.964;2022-08-21T08:02:43;99898.91;;;24.95;58.33
53754;BME280;39667;52.274;20.964;2022-08-21T08:05:11;99898.55;;;25.02;58.11
53754;BME280;39667;52.274;20.964;2022-08-21T08:07:39;99894.59;;;25.08;58.15
53754;BME280;39667;52.274;20.964;2022-08-21T08:10:07;99892.86;;;25.17;57.95
53754;BME280;39667;52.274;20.964;2022-08-21T08:12:39;99886.34;;;25.27;57.61
53754;BME280;39667;52.274;20.964;2022-08-21T08:15:09;99885.38;;;25.37;57.76
53754;BME280;39667;52.274;20.964;2022-08-21T08:17:36;99884.20;;;25.47;57.71
53754;BME280;39667;52.274;20.964;2022-08-21T08:20:05;99886.64;;;25.57;57.30
53754;BME280;39667;52.274;20.964;2022-08-21T08:22:35;99882.69;;;25.69;57.14
53754;BME280;39667;52.274;20.964;2022-08-21T08:25:03;99886.58;;;25.81;56.87
53754;BME280;39667;52.274;20.964;2022-08-21T08:27:35;99881.80;;;25.89;56.46
53754;BME280;39667;52.274;20.964;2022-08-21T08:30:04;99879.03;;;25.98;56.14
53754;BME280;39667;52.274;20.964;2022-08-21T08:32:32;99880.49;;;26.07;55.98
53754;BME280;39667;52.274;20.964;2022-08-21T08:34:59;99879.48;;;26.17;56.03
53754;BME280;39667;52.274;20.964;2022-08-21T08:37:29;99887.54;;;26.29;55.83
53754;BME280;39667;52.274;20.964;2022-08-21T08:40:00;99885.55;;;26.40;55.45
53754;BME280;39667;52.274;20.964;2022-08-21T08:42:34;99886.02;;;26.52;55.19
53754;BME280;39667;52.274;20.964;2022-08-21T08:45:12;99885.13;;;26.65;54.65
53754;BME280;39667;52.274;20.964;2022-08-21T08:47:47;99877.83;;;26.72;54.50
53754;BME280;39667;52.274;20.964;2022-08-21T08:50:33;99871.98;;;26.81;54.17
53754;BME280;39667;52.274;20.964;2022-08-21T08:53:08;99871.16;;;26.91;53.69
53754;BME280;39667;52.274;20.964;2022-08-21T08:55:40;99870.89;;;27.01;53.69
53754;BME280;39667;52.274;20.964;2022-08-21T08:58:22;99870.23;;;27.15;54.05
53754;BME280;39667;52.274;20.964;2022-08-21T09:00:52;99873.63;;;27.30;53.59
53754;BME280;39667;52.274;20.964;2022-08-21T09:03:22;99875.70;;;27.45;53.35
53754;BME280;39667;52.274;20.964;2022-08-21T09:05:58;99871.85;;;27.56;52.48
53754;BME280;39667;52.274;20.964;2022-08-21T09:08:36;99868.69;;;27.70;52.29
53754;BME280;39667;52.274;20.964;2022-08-21T09:11:15;99870.27;;;27.75;51.83
53754;BME280;39667;52.274;20.964;2022-08-21T09:14:01;99871.48;;;27.89;51.70
53754;BME280;39667;52.274;20.964;2022-08-21T09:16:44;99871.62;;;28.04;51.23
53754;BME280;39667;52.274;20.964;2022-08-21T09:25:03;99870.92;;;28.54;49.96
53754;BME280;39667;52.274;20.964;2022-08-21T09:27:34;99869.63;;;28.77;49.62
53754;BME280;39667;52.274;20.964;2022-08-21T09:30:05;99868.59;;;28.88;48.80
53754;BME280;39667;52.274;20.964;2022-08-21T09:32:35;99868.10;;;28.86;48.89
53754;BME280;39667;52.274;20.964;2022-08-21T09:37:51;99867.52;;;28.59;48.76
53754;BME280;39667;52.274;20.964;2022-08-21T09:40:36;99865.58;;;28.49;49.07
53754;BME280;39667;52.274;20.964;2022-08-21T09:45:41;99866.35;;;28.38;48.87
53754;BME280;39667;52.274;20.964;2022-08-21T09:48:19;99863.88;;;28.51;48.59
53754;BME280;39667;52.274;20.964;2022-08-21T09:50:48;99860.08;;;28.75;47.99
53754;BME280;39667;52.274;20.964;2022-08-21T09:53:19;99858.00;;;28.97;47.59
53754;BME280;39667;52.274;20.964;2022-08-21T09:55:51;99857.55;;;29.19;47.66
53754;BME280;39667;52.274;20.964;2022-08-21T09:58:39;99854.73;;;29.51;47.73
53754;BME280;39667;52.274;20.964;2022-08-21T10:01:15;99849.85;;;29.71;46.86
53754;BME280;39667;52.274;20.964;2022-08-21T10:03:42;99849.94;;;29.89;46.20
53754;BME280;39667;52.274;20.964;2022-08-21T10:06:19;99846.81;;;30.02;46.12
53754;BME280;39667;52.274;20.964;2022-08-21T10:08:47;99849.47;;;30.19;45.40
53754;BME280;39667;52.274;20.964;2022-08-21T10:11:16;99851.40;;;30.36;45.34
53754;BME280;39667;52.274;20.964;2022-08-21T10:13:59;99855.76;;;30.36;44.96
53754;BME280;39667;52.274;20.964;2022-08-21T10:19:33;99844.52;;;30.01;44.85
53754;BME280;39667;52.274;20.964;2022-08-21T10:27:14;99848.52;;;29.57;44.97
53754;BME280;39667;52.274;20.964;2022-08-21T10:29:56;99846.75;;;29.45;45.24
53754;BME280;39667;52.274;20.964;2022-08-21T10:35:17;99848.38;;;29.24;45.46
53754;BME280;39667;52.274;20.964;2022-08-21T10:41:05;99849.63;;;28.97;46.11
53754;BME280;39667;52.274;20.964;2022-08-21T10:46:24;99848.18;;;28.72;46.11
53754;BME280;39667;52.274;20.964;2022-08-21T10:49:45;99849.75;;;28.61;46.55
53754;BME280;39667;52.274;20.964;2022-08-21T10:51:54;99855.40;;;28.51;46.64
53754;BME280;39667;52.274;20.964;2022-08-21T10:54:35;99852.89;;;28.45;46.75
53754;BME280;39667;52.274;20.964;2022-08-21T10:57:11;99852.05;;;28.38;47.15
53754;BME280;39667;52.274;20.964;2022-08-21T11:00:04;99851.47;;;28.31;47.07
53754;BME280;39667;52.274;20.964;2022-08-21T11:02:39;99848.59;;;28.23;47.24
53754;BME280;39667;52.274;20.964;2022-08-21T11:05:41;99848.77;;;28.18;47.49
53754;BME280;39667;52.274;20.964;2022-08-21T11:08:12;99844.94;;;28.17;47.63
53754;BME280;39667;52.274;20.964;2022-08-21T11:10:52;99840.23;;;28.17;47.52
53754;BME280;39667;52.274;20.964;2022-08-21T11:13:31;99837.02;;;28.22;47.11
53754;BME280;39667;52.274;20.964;2022-08-21T11:18:53;99833.15;;;28.43;46.83
53754;BME280;39667;52.274;20.964;2022-08-21T11:21:35;99826.98;;;28.72;46.40
53754;BME280;39667;52.274;20.964;2022-08-21T11:24:32;99823.88;;;29.13;45.78
53754;BME280;39667;52.274;20.964;2022-08-21T11:27:23;99821.48;;;29.63;44.93
53754;BME280;39667;52.274;20.964;2022-08-21T11:29:58;99816.89;;;30.06;44.49
53754;BME280;39667;52.274;20.964;2022-08-21T11:32:38;99825.20;;;30.39;43.68
53754;BME280;39667;52.274;20.964;2022-08-21T11:46:48;99824.84;;;31.22;41.59
53754;BME280;39667;52.274;20.964;2022-08-21T11:52:24;99832.58;;;31.14;41.02
53754;BME280;39667;52.274;20.964;2022-08-21T11:55:18;99827.18;;;31.08;41.10
53754;BME280;39667;52.274;20.964;2022-08-21T12:00:39;99819.46;;;31.61;40.41
53754;BME280;39667;52.274;20.964;2022-08-21T12:06:06;99822.11;;;32.16;39.65
53754;BME280;39667;52.274;20.964;2022-08-21T12:08:40;99821.36;;;32.43;39.06
53754;BME280;39667;52.274;20.964;2022-08-21T12:16:36;99809.89;;;32.93;37.86
53754;BME280;39667;52.274;20.964;2022-08-21T12:21:54;99810.47;;;33.31;37.25
53754;BME280;39667;52.274;20.964;2022-08-21T12:27:19;99808.06;;;33.28;36.89
53754;BME280;39667;52.274;20.964;2022-08-21T12:29:50;99806.98;;;33.30;37.20
53754;BME280;39667;52.274;20.964;2022-08-21T12:34:48;99811.05;;;33.29;36.57
53754;BME280;39667;52.274;20.964;2022-08-21T12:39:54;99812.56;;;33.13;36.59
53754;BME280;39667;52.274;20.964;2022-08-21T12:42:38;99809.13;;;33.24;36.39
53754;BME280;39667;52.274;20.964;2022-08-21T12:53:29;99811.16;;;33.67;35.99
53754;BME280;39667;52.274;20.964;2022-08-21T12:56:02;99813.44;;;33.53;36.09
53754;BME280;39667;52.274;20.964;2022-08-21T12:58:57;99818.29;;;33.24;36.19
53754;BME280;39667;52.274;20.964;2022-08-21T13:01:45;99815.46;;;32.82;36.70
53754;BME280;39667;52.274;20.964;2022-08-21T13:04:18;99818.29;;;32.43;37.12
53754;BME280;39667;52.274;20.964;2022-08-21T13:06:53;99817.20;;;32.11;37.57
53754;BME280;39667;52.274;20.964;2022-08-21T13:09:26;99819.30;;;31.90;37.71
53754;BME280;39667;52.274;20.964;2022-08-21T13:11:54;99820.73;;;31.70;37.96
53754;BME280;39667;52.274;20.964;2022-08-21T13:14:33;99813.66;;;31.49;38.39
53754;BME280;39667;52.274;20.964;2022-08-21T13:17:13;99813.23;;;31.43;38.50
53754;BME280;39667;52.274;20.964;2022-08-21T13:20:01;99816.45;;;31.26;38.91
53754;BME280;39667;52.274;20.964;2022-08-21T13:22:29;99815.16;;;31.24;39.28
53754;BME280;39667;52.274;20.964;2022-08-21T13:25:02;99813.73;;;31.41;39.20
53754;BME280;39667;52.274;20.964;2022-08-21T13:27:33;99812.34;;;31.56;39.24
53754;BME280;39667;52.274;20.964;2022-08-21T13:30:17;99812.63;;;31.67;39.14
53754;BME280;39667;52.274;20.964;2022-08-21T13:32:48;99812.19;;;31.94;39.12
53754;BME280;39667;52.274;20.964;2022-08-21T13:35:24;99809.20;;;32.05;39.00
53754;BME280;39667;52.274;20.964;2022-08-21T13:37:56;99807.81;;;32.24;38.86
53754;BME280;39667;52.274;20.964;2022-08-21T13:40:29;99807.73;;;32.45;38.50
53754;BME280;39667;52.274;20.964;2022-08-21T13:42:59;99811.52;;;32.60;38.18
53754;BME280;39667;52.274;20.964;2022-08-21T13:45:32;99815.60;;;32.68;37.92
53754;BME280;39667;52.274;20.964;2022-08-21T13:48:01;99810.89;;;32.77;37.67
53754;BME280;39667;52.274;20.964;2022-08-21T13:50:35;99812.88;;;32.87;37.23
53754;BME280;39667;52.274;20.964;2022-08-21T13:53:06;99815.88;;;32.96;37.17
53754;BME280;39667;52.274;20.964;2022-08-21T13:55:42;99813.70;;;33.01;37.15
53754;BME280;39667;52.274;20.964;2022-08-21T13:58:11;99815.77;;;33.20;36.88
53754;BME280;39667;52.274;20.964;2022-08-21T14:00:49;99812.67;;;33.41;36.31
53754;BME280;39667;52.274;20.964;2022-08-21T14:03:34;99809.87;;;33.64;36.33
53754;BME280;39667;52.274;20.964;2022-08-21T14:06:11;99808.48;;;33.84;35.75
53754;BME280;39667;52.274;20.964;2022-08-21T14:09:00;99813.95;;;34.14;35.81
53754;BME280;39667;52.274;20.964;2022-08-21T14:11:32;99816.91;;;34.25;35.42
53754;BME280;39667;52.274;20.964;2022-08-21T14:14:12;99811.58;;;34.12;35.56
53754;BME280;39667;52.274;20.964;2022-08-21T14:16:53;99813.28;;;33.83;35.18
53754;BME280;39667;52.274;20.964;2022-08-21T14:19:39;99813.49;;;33.56;35.71
53754;BME280;39667;52.274;20.964;2022-08-21T14:22:29;99811.98;;;33.44;35.70
53754;BME280;39667;52.274;20.964;2022-08-21T14:28:03;99818.55;;;33.29;35.83
53754;BME280;39667;52.274;20.964;2022-08-21T14:30:38;99816.92;;;33.17;35.76
53754;BME280;39667;52.274;20.964;2022-08-21T14:33:11;99817.66;;;33.28;35.77